Time;durP1;ratioP1;P1;durP2;ratioP2;P2;SDS_P1;SDS_P2;PMS_P1;PMS_P2;Temp;Humidity;BMP_temperature;BMP_pressure;BME280_temperature;BME280_humidity;BME280_pressure;Samples;Min_cycle;Max_cycle;Signal;HPM_P1;HPM_P2
2022/07/26 00:00:22;;;;;;;;;;;;;;;26.89;46.33;100051.22;2081464;28;19995;-66
2022/07/26 00:01:23;;;;;;;;;;;;;;;26.90;46.58;100049.34;2081472;28;19921;-66
2022/07/26 00:02:23;;;;;;;;;;;;;;;26.90;46.24;100046.59;2081830;28;19972;-66
2022/07/26 00:03:23;;;;;;;;;;;;;;;26.90;46.53;100046.59;2082035;28;20395;-66
2022/07/26 00:04:24;;;;;;;;;;;;;;;26.90;46.49;100054.88;2082275;28;19917;-66
2022/07/26 00:05:24;;;;;;;;;;;;;;;26.90;46.22;100052.13;2082015;28;19917;-66
2022/07/26 00:06:24;;;;;;;;;;;;;;;26.90;46.40;100039.13;2082047;28;19909;-67
2022/07/26 00:07:25;;;;;;;;;;;;;;;26.90;46.13;100039.13;2082272;28;19967;-66
2022/07/26 00:08:25;;;;;;;;;;;;;;;26.90;46.09;100041.06;2081529;28;19909;-67
2022/07/26 00:09:25;;;;;;;;;;;;;;;26.91;46.13;100045.50;2081789;28;19917;-67
2022/07/26 00:10:26;;;;;;;;;;;;;;;26.92;46.02;100041.69;2082061;28;19952;-66
2022/07/26 00:11:27;;;;;;;;;;;;;;;26.91;45.95;100043.59;2082170;28;19913;-66
2022/07/26 00:12:27;;;;;;;;;;;;;;;26.92;46.28;100038.91;2081862;28;19913;-66
2022/07/26 00:13:28;;;;;;;;;;;;;;;26.91;46.24;100049.13;2081345;28;19920;-66
2022/07/26 00:14:28;;;;;;;;;;;;;;;26.92;46.06;100041.69;2074008;28;20407;-67
2022/07/26 00:15:28;;;;;;;;;;;;;;;26.92;46.08;100039.78;2078317;28;19913;-66
2022/07/26 00:16:29;;;;;;;;;;;;;;;26.91;45.94;100049.13;2082155;28;19920;-66
2022/07/26 00:17:29;;;;;;;;;;;;;;;26.91;46.19;100046.34;2082136;28;19913;-67
2022/07/26 00:18:29;;;;;;;;;;;;;;;26.92;45.87;100044.44;2081775;28;19956;-66
2022/07/26 00:19:30;;;;;;;;;;;;;;;26.91;46.23;100043.59;2075822;28;19917;-66
2022/07/26 00:20:30;;;;;;;;;;;;;;;26.92;46.23;100045.31;2078102;28;19913;-66
2022/07/26 00:21:31;;;;;;;;;;;;;;;26.92;46.07;100042.56;2083374;28;19994;-66
2022/07/26 00:22:34;;;;;;;;;;;;;;;26.91;46.17;100048.28;2090258;28;19913;-66
2022/07/26 00:23:34;;;;;;;;;;;;;;;26.92;46.00;100041.69;2083723;28;19913;-66
2022/07/26 00:24:34;;;;;;;;;;;;;;;26.92;46.33;100044.44;2081962;28;19913;-66
2022/07/26 00:25:35;;;;;;;;;;;;;;;26.91;46.27;100048.28;2081979;28;19963;-66
2022/07/26 00:26:35;;;;;;;;;;;;;;;26.92;46.04;100042.56;2078924;28;19935;-66
2022/07/26 00:27:36;;;;;;;;;;;;;;;26.91;46.03;100039.97;2082195;28;19913;-66
2022/07/26 00:28:36;;;;;;;;;;;;;;;26.92;46.06;100050.84;2082025;28;19913;-66
2022/07/26 00:29:36;;;;;;;;;;;;;;;26.91;46.01;100038.06;2081868;28;19913;-66
2022/07/26 00:30:37;;;;;;;;;;;;;;;26.91;46.28;100040.81;2074836;28;20003;-66
2022/07/26 00:31:37;;;;;;;;;;;;;;;26.91;46.38;100042.75;2079510;28;19920;-66
2022/07/26 00:32:37;;;;;;;;;;;;;;;26.89;46.46;100045.69;2083564;28;20256;-66
2022/07/26 00:33:39;;;;;;;;;;;;;;;26.91;46.34;100039.97;2083540;28;19936;-66
2022/07/26 00:34:39;;;;;;;;;;;;;;;26.90;46.50;100047.44;2083541;28;19913;-66
2022/07/26 00:35:39;;;;;;;;;;;;;;;26.90;46.47;100046.59;2083342;28;20012;-67
2022/07/26 00:36:40;;;;;;;;;;;;;;;26.90;46.42;100050.19;2083344;28;19967;-66
2022/07/26 00:37:40;;;;;;;;;;;;;;;26.89;46.40;100045.69;2083380;28;19987;-66
2022/07/26 00:38:41;;;;;;;;;;;;;;;26.89;46.73;100045.69;2084172;28;19913;-66
2022/07/26 00:39:42;;;;;;;;;;;;;;;26.88;46.76;100046.78;2083219;28;19928;-66
2022/07/26 00:40:43;;;;;;;;;;;;;;;26.88;46.83;100048.69;2083707;28;20043;-67
2022/07/26 00:41:43;;;;;;;;;;;;;;;26.88;46.47;100049.53;2080272;28;19932;-66
2022/07/26 00:42:43;;;;;;;;;;;;;;;26.88;46.67;100049.53;2075279;28;19917;-66
2022/07/26 00:43:57;;;;;;;;;;;;;;;26.88;46.36;100049.53;2082514;28;20007;-67
2022/07/26 00:44:58;;;;;;;;;;;;;;;26.87;46.36;100050.56;2083274;28;19913;-66
2022/07/26 00:45:58;;;;;;;;;;;;;;;26.88;46.50;100049.53;2083476;28;19917;-66
2022/07/26 00:46:58;;;;;;;;;;;;;;;26.89;46.31;100045.69;2077738;28;19913;-66
2022/07/26 00:47:58;;;;;;;;;;;;;;;26.89;46.42;100050.38;2075398;28;19910;-66
2022/07/26 00:48:59;;;;;;;;;;;;;;;26.88;46.24;100044.00;2075386;28;19932;-67
2022/07/26 00:50:00;;;;;;;;;;;;;;;26.88;46.28;100049.53;2084245;28;19912;-66
2022/07/26 00:51:00;;;;;;;;;;;;;;;26.89;46.36;100048.47;2091668;28;19920;-67
2022/07/26 00:52:00;;;;;;;;;;;;;;;26.88;46.16;100049.53;2083566;28;19968;-66
2022/07/26 00:53:00;;;;;;;;;;;;;;;26.89;46.23;100051.22;2083142;28;19913;-66
2022/07/26 00:54:01;;;;;;;;;;;;;;;26.88;46.12;100044.00;2083363;28;19913;-67
2022/07/26 00:55:03;;;;;;;;;;;;;;;26.89;46.43;100056.75;2083258;28;20000;-67
2022/07/26 00:56:03;;;;;;;;;;;;;;;26.89;46.18;100050.38;2083134;28;19917;-66
2022/07/26 00:57:04;;;;;;;;;;;;;;;26.89;46.39;100045.69;2087679;28;19916;-66
2022/07/26 00:58:05;;;;;;;;;;;;;;;26.89;46.47;100042.94;2090552;28;19908;-66
2022/07/26 00:59:05;;;;;;;;;;;;;;;26.89;46.58;100056.75;2082692;28;20012;-66
2022/07/26 01:00:08;;;;;;;;;;;;;;;26.89;46.56;100054.00;2082624;28;19917;-66
2022/07/26 01:01:08;;;;;;;;;;;;;;;26.89;46.52;100051.22;2083436;28;20016;-66
2022/07/26 01:02:09;;;;;;;;;;;;;;;26.89;46.40;100048.47;2076424;28;19920;-66
2022/07/26 01:03:10;;;;;;;;;;;;;;;26.88;46.74;100049.53;2076230;28;19913;-67
2022/07/26 01:04:10;;;;;;;;;;;;;;;26.89;46.64;100045.69;2083365;28;19913;-66
2022/07/26 01:05:11;;;;;;;;;;;;;;;26.89;46.40;100034.63;2087055;28;19913;-66
2022/07/26 01:06:11;;;;;;;;;;;;;;;26.89;46.50;100039.31;2091565;28;20414;-66
2022/07/26 01:07:12;;;;;;;;;;;;;;;26.88;46.44;100032.94;2085492;28;19971;-66
2022/07/26 01:08:12;;;;;;;;;;;;;;;26.89;46.33;100037.41;2082885;28;19913;-66
2022/07/26 01:09:13;;;;;;;;;;;;;;;26.88;46.50;100032.94;2083384;28;20362;-66
2022/07/26 01:10:13;;;;;;;;;;;;;;;26.89;46.23;100034.63;2083043;28;20687;-66
2022/07/26 01:11:13;;;;;;;;;;;;;;;26.87;46.29;100030.38;2083442;28;20311;-66
2022/07/26 01:12:14;;;;;;;;;;;;;;;26.88;46.56;100026.56;2088320;28;19912;-66
2022/07/26 01:13:23;;;;;;;;;;;;;;;26.88;46.47;100032.09;2091085;28;19959;-66
2022/07/26 01:14:24;;;;;;;;;;;;;;;26.87;46.83;100031.22;2083384;28;19917;-66
2022/07/26 01:15:24;;;;;;;;;;;;;;;26.87;46.66;100025.69;2083033;28;19917;-66
2022/07/26 01:16:25;;;;;;;;;;;;;;;26.86;46.69;100032.28;2083130;28;19913;-66
2022/07/26 01:17:25;;;;;;;;;;;;;;;26.86;47.03;100029.53;2082892;28;19942;-67
2022/07/26 01:18:26;;;;;;;;;;;;;;;26.86;47.08;100029.53;2083175;28;19913;-67
2022/07/26 01:19:26;;;;;;;;;;;;;;;26.86;47.10;100029.53;2077247;28;19937;-66
2022/07/26 01:20:26;;;;;;;;;;;;;;;26.85;46.88;100030.59;2077455;28;20375;-66
2022/07/26 01:21:30;;;;;;;;;;;;;;;26.85;46.85;100033.34;2082308;28;19913;-66
2022/07/26 01:22:30;;;;;;;;;;;;;;;26.84;46.89;100028.88;2082510;28;19920;-67
2022/07/26 01:23:32;;;;;;;;;;;;;;;26.84;47.19;100025.25;2083040;28;20363;-67
2022/07/26 01:24:32;;;;;;;;;;;;;;;26.84;47.09;100026.09;2083260;28;19970;-67
2022/07/26 01:25:34;;;;;;;;;;;;;;;26.84;46.86;100020.56;2082974;28;19913;-67
2022/07/26 01:26:34;;;;;;;;;;;;;;;26.84;46.90;100025.25;2075809;28;19915;-66
2022/07/26 01:27:38;;;;;;;;;;;;;;;26.85;47.10;100026.94;2089011;28;19912;-67
2022/07/26 01:28:39;;;;;;;;;;;;;;;26.84;47.12;100020.56;2090348;28;19916;-66
2022/07/26 01:29:39;;;;;;;;;;;;;;;26.83;47.06;100026.31;2082990;28;19912;-66
2022/07/26 01:30:39;;;;;;;;;;;;;;;26.84;46.74;100026.09;2083054;28;19956;-67
2022/07/26 01:31:40;;;;;;;;;;;;;;;26.84;46.77;100017.81;2082966;28;19921;-66
2022/07/26 01:32:40;;;;;;;;;;;;;;;26.85;46.99;100022.28;2082833;28;19913;-67
2022/07/26 01:33:40;;;;;;;;;;;;;;;26.85;46.61;100016.75;2082724;28;20391;-66
2022/07/26 01:34:41;;;;;;;;;;;;;;;26.85;46.78;100022.28;2082998;28;20277;-67
2022/07/26 01:35:41;;;;;;;;;;;;;;;26.84;46.72;100017.81;2083079;28;19964;-66
2022/07/26 01:36:41;;;;;;;;;;;;;;;26.85;46.55;100016.75;2083453;28;19913;-66
2022/07/26 01:37:42;;;;;;;;;;;;;;;26.85;46.55;100022.28;2082625;28;19921;-67
2022/07/26 01:38:42;;;;;;;;;;;;;;;26.86;46.72;100014.84;2083084;28;19924;-67
2022/07/26 01:39:44;;;;;;;;;;;;;;;26.85;46.57;100013.13;2082778;28;20357;-66
2022/07/26 01:40:44;;;;;;;;;;;;;;;26.86;46.69;100024.00;2082680;28;19920;-66
2022/07/26 01:41:45;;;;;;;;;;;;;;;26.84;46.42;100017.81;2083133;28;20351;-66
2022/07/26 01:42:45;;;;;;;;;;;;;;;26.85;46.69;100016.75;2086137;28;19919;-66
2022/07/26 01:43:45;;;;;;;;;;;;;;;26.85;46.70;100019.53;2090816;28;19913;-67
2022/07/26 01:44:46;;;;;;;;;;;;;;;26.86;46.61;100026.75;2083683;28;19913;-66
2022/07/26 01:45:46;;;;;;;;;;;;;;;26.86;46.47;100023.16;2082623;28;19913;-66
2022/07/26 01:46:46;;;;;;;;;;;;;;;26.87;46.47;100024.84;2074761;28;20357;-66
2022/07/26 01:47:48;;;;;;;;;;;;;;;26.85;46.77;100022.28;2077914;28;20350;-66
2022/07/26 01:48:49;;;;;;;;;;;;;;;26.86;46.79;100024.00;2082300;28;19914;-66
2022/07/26 01:49:49;;;;;;;;;;;;;;;26.85;46.79;100026.94;2083091;28;20494;-66
2022/07/26 01:50:49;;;;;;;;;;;;;;;26.86;46.66;100026.75;2082779;28;19913;-67
2022/07/26 01:51:50;;;;;;;;;;;;;;;26.85;46.55;100022.28;2082781;28;19913;-66
2022/07/26 01:52:50;;;;;;;;;;;;;;;26.85;46.47;100025.06;2082942;28;19924;-67
2022/07/26 01:53:50;;;;;;;;;;;;;;;26.85;46.46;100018.66;2082951;28;19921;-67
2022/07/26 01:54:51;;;;;;;;;;;;;;;26.84;46.50;100023.34;2080737;28;19919;-66
2022/07/26 01:55:51;;;;;;;;;;;;;;;26.85;46.46;100016.75;2074869;28;20007;-67
2022/07/26 01:56:51;;;;;;;;;;;;;;;26.84;46.64;100017.81;2077960;28;19985;-67
2022/07/26 01:57:52;;;;;;;;;;;;;;;26.84;46.75;100015.03;2070007;28;19917;-67
2022/07/26 01:58:52;;;;;;;;;;;;;;;26.82;46.72;100017.16;2067977;28;20678;-67
2022/07/26 01:59:54;;;;;;;;;;;;;;;26.84;46.67;100019.72;2072442;28;20681;-67
2022/07/26 02:00:54;;;;;;;;;;;;;;;26.82;46.68;100014.38;2071180;28;19921;-68
2022/07/26 02:01:55;;;;;;;;;;;;;;;26.82;46.80;100017.16;2071439;28;20260;-67
2022/07/26 02:02:55;;;;;;;;;;;;;;;26.81;47.00;100015.44;2074723;28;20368;-67
2022/07/26 02:03:55;;;;;;;;;;;;;;;26.82;46.87;100011.63;2068553;28;19932;-68
2022/07/26 02:04:58;;;;;;;;;;;;;;;26.82;46.94;100016.31;2073105;28;19917;-67
2022/07/26 02:05:59;;;;;;;;;;;;;;;26.81;46.99;100014.59;2064790;28;19924;-67
2022/07/26 02:06:59;;;;;;;;;;;;;;;26.81;46.97;100018.22;2065935;28;20457;-68
2022/07/26 02:08:00;;;;;;;;;;;;;;;26.80;47.38;100011.00;2069024;28;19916;-67
2022/07/26 02:09:00;;;;;;;;;;;;;;;26.80;46.99;100007.34;2070907;28;19947;-67
2022/07/26 02:10:00;;;;;;;;;;;;;;;26.80;47.01;100001.81;2070026;28;19967;-67
2022/07/26 02:11:01;;;;;;;;;;;;;;;26.80;46.95;100007.34;2072487;28;19971;-67
2022/07/26 02:12:01;;;;;;;;;;;;;;;26.79;46.98;100000.97;2068452;28;20023;-67
2022/07/26 02:13:02;;;;;;;;;;;;;;;26.80;47.25;100008.22;2070114;28;19909;-67
2022/07/26 02:14:02;;;;;;;;;;;;;;;26.79;46.95;100006.50;2068835;28;20670;-68
2022/07/26 02:15:03;;;;;;;;;;;;;;;26.80;47.15;100004.59;2070237;28;19910;-68
2022/07/26 02:16:05;;;;;;;;;;;;;;;26.80;46.94;100001.81;2068515;28;20131;-67
2022/07/26 02:17:05;;;;;;;;;;;;;;;26.80;46.88;100002.69;2069832;28;19920;-67
2022/07/26 02:18:06;;;;;;;;;;;;;;;26.80;46.89;100008.22;2067760;28;20012;-67
2022/07/26 02:19:06;;;;;;;;;;;;;;;26.80;47.11;100002.69;2066801;28;19944;-67
2022/07/26 02:20:07;;;;;;;;;;;;;;;26.81;47.04;99996.09;2061635;28;19925;-67
2022/07/26 02:21:08;;;;;;;;;;;;;;;26.81;47.05;99998.00;2064635;28;19920;-68
2022/07/26 02:22:08;;;;;;;;;;;;;;;26.81;47.00;100004.38;2069974;28;20358;-68
2022/07/26 02:23:08;;;;;;;;;;;;;;;26.82;46.91;100006.09;2067881;28;20658;-67
2022/07/26 02:24:09;;;;;;;;;;;;;;;26.81;46.79;100004.38;2068628;28;19917;-67
2022/07/26 02:25:09;;;;;;;;;;;;;;;26.82;46.62;100005.25;2070236;28;19917;-67
2022/07/26 02:26:09;;;;;;;;;;;;;;;26.81;46.68;100004.38;2068862;28;19909;-67
2022/07/26 02:27:09;;;;;;;;;;;;;;;26.82;46.79;100000.56;2069903;28;20003;-67
2022/07/26 02:28:10;;;;;;;;;;;;;;;26.82;46.84;100003.31;2069158;28;19917;-67
2022/07/26 02:29:10;;;;;;;;;;;;;;;26.81;46.82;99998.88;2068810;28;19936;-67
2022/07/26 02:30:11;;;;;;;;;;;;;;;26.81;46.84;100004.38;2070380;28;19971;-67
2022/07/26 02:31:11;;;;;;;;;;;;;;;26.81;46.92;99998.88;2070395;28;20013;-67
2022/07/26 02:32:11;;;;;;;;;;;;;;;26.81;46.64;99995.25;2072118;28;19960;-67
2022/07/26 02:33:12;;;;;;;;;;;;;;;26.81;46.80;99998.00;2069662;28;20315;-67
2022/07/26 02:34:12;;;;;;;;;;;;;;;26.81;47.01;99998.00;2068395;28;20491;-67
2022/07/26 02:35:12;;;;;;;;;;;;;;;26.81;47.09;99996.09;2069947;28;19913;-67
2022/07/26 02:36:13;;;;;;;;;;;;;;;26.80;46.80;99985.22;2067204;28;19913;-67
2022/07/26 02:37:13;;;;;;;;;;;;;;;26.80;46.79;99993.53;2068263;28;19921;-67
2022/07/26 02:38:14;;;;;;;;;;;;;;;26.79;46.93;99987.16;2063553;28;19932;-67
2022/07/26 02:39:14;;;;;;;;;;;;;;;26.80;47.05;100002.69;2065942;28;19917;-67
2022/07/26 02:40:15;;;;;;;;;;;;;;;26.79;46.87;99989.91;2062606;28;20006;-67
2022/07/26 02:41:15;;;;;;;;;;;;;;;26.80;46.99;99990.75;2069961;28;19955;-67
2022/07/26 02:42:15;;;;;;;;;;;;;;;26.79;47.10;99992.69;2067896;28;19919;-67
2022/07/26 02:43:16;;;;;;;;;;;;;;;26.80;47.09;99991.63;2068312;28;19913;-67
2022/07/26 02:44:16;;;;;;;;;;;;;;;26.78;46.90;99985.44;2064919;28;20354;-67
2022/07/26 02:45:16;;;;;;;;;;;;;;;26.78;47.12;99993.75;2072312;28;19916;-67
2022/07/26 02:46:17;;;;;;;;;;;;;;;26.78;46.80;99988.22;2062850;28;20553;-67
2022/07/26 02:47:17;;;;;;;;;;;;;;;26.77;47.04;99986.50;2065663;28;19917;-67
2022/07/26 02:48:18;;;;;;;;;;;;;;;26.77;46.87;99980.97;2067958;28;20011;-67
2022/07/26 02:49:18;;;;;;;;;;;;;;;26.77;47.06;99980.13;2065705;28;20343;-67
2022/07/26 02:50:19;;;;;;;;;;;;;;;26.77;46.91;99986.50;2066038;28;19948;-67
2022/07/26 02:51:20;;;;;;;;;;;;;;;26.77;46.88;99980.97;2061989;28;20947;-67
2022/07/26 02:52:20;;;;;;;;;;;;;;;26.78;46.87;99981.81;2068874;28;20021;-67
2022/07/26 02:53:20;;;;;;;;;;;;;;;26.78;46.92;99976.28;2069485;28;19917;-67
2022/07/26 02:54:21;;;;;;;;;;;;;;;26.77;47.16;99980.97;2064744;28;19913;-67
2022/07/26 02:55:22;;;;;;;;;;;;;;;26.76;47.11;99970.97;2068320;28;19947;-67
2022/07/26 02:56:23;;;;;;;;;;;;;;;26.77;46.86;99975.44;2064332;28;19916;-67
2022/07/26 02:57:23;;;;;;;;;;;;;;;26.77;47.08;99975.44;2067540;28;19944;-67
2022/07/26 02:58:25;;;;;;;;;;;;;;;26.77;47.01;99975.44;2068290;28;19925;-67
2022/07/26 02:59:26;;;;;;;;;;;;;;;26.78;46.92;99981.81;2068013;28;20012;-67
2022/07/26 03:00:26;;;;;;;;;;;;;;;26.77;46.97;99978.19;2070272;28;19925;-67
2022/07/26 03:01:26;;;;;;;;;;;;;;;26.76;46.80;99973.72;2068523;28;20013;-67
2022/07/26 03:02:27;;;;;;;;;;;;;;;26.76;46.90;99979.25;2068442;28;19917;-68
2022/07/26 03:03:27;;;;;;;;;;;;;;;26.78;47.04;99976.28;2067312;28;19982;-68
2022/07/26 03:04:27;;;;;;;;;;;;;;;26.78;46.69;99971.63;2068616;28;19913;-67
2022/07/26 03:05:28;;;;;;;;;;;;;;;26.77;46.98;99975.44;2070398;28;20032;-67
2022/07/26 03:06:28;;;;;;;;;;;;;;;26.78;46.68;99973.50;2068563;28;19917;-67
2022/07/26 03:07:28;;;;;;;;;;;;;;;26.77;46.63;99969.91;2070413;28;19924;-67
2022/07/26 03:08:29;;;;;;;;;;;;;;;26.76;46.60;99973.72;2068430;28;20010;-67
2022/07/26 03:09:29;;;;;;;;;;;;;;;26.78;46.66;99977.16;2068608;28;20746;-67
2022/07/26 03:10:29;;;;;;;;;;;;;;;26.78;46.90;99977.16;2069831;28;19948;-67
2022/07/26 03:11:29;;;;;;;;;;;;;;;26.77;46.95;99972.66;2067961;28;20378;-67
2022/07/26 03:12:30;;;;;;;;;;;;;;;26.78;46.90;99971.63;2069760;28;19923;-67
2022/07/26 03:13:30;;;;;;;;;;;;;;;26.78;46.80;99971.63;2067652;28;19913;-67
2022/07/26 03:14:30;;;;;;;;;;;;;;;26.78;46.59;99970.75;2068483;28;20189;-67
2022/07/26 03:15:31;;;;;;;;;;;;;;;26.77;46.59;99969.91;2069569;28;19920;-67
2022/07/26 03:16:31;;;;;;;;;;;;;;;26.77;46.80;99969.91;2068299;28;19919;-67
2022/07/26 03:17:31;;;;;;;;;;;;;;;26.77;46.60;99964.38;2066476;28;19920;-67
2022/07/26 03:18:32;;;;;;;;;;;;;;;26.78;46.72;99968.84;2069324;28;20529;-67
2022/07/26 03:19:32;;;;;;;;;;;;;;;26.77;46.86;99969.91;2068565;28;20846;-67
2022/07/26 03:20:32;;;;;;;;;;;;;;;26.77;46.79;99971.81;2063750;28;19923;-67
2022/07/26 03:21:33;;;;;;;;;;;;;;;26.77;46.67;99969.91;2066557;28;20023;-67
2022/07/26 03:22:33;;;;;;;;;;;;;;;26.77;46.94;99969.06;2067034;28;19920;-67
2022/07/26 03:23:33;;;;;;;;;;;;;;;26.77;46.67;99966.28;2065880;28;20316;-67
2022/07/26 03:24:34;;;;;;;;;;;;;;;26.76;46.94;99968.19;2069641;28;19928;-67
2022/07/26 03:25:34;;;;;;;;;;;;;;;26.75;46.85;99966.47;2065293;28;19917;-68
2022/07/26 03:26:34;;;;;;;;;;;;;;;26.74;46.75;99964.78;2070954;28;19920;-67
2022/07/26 03:27:35;;;;;;;;;;;;;;;26.74;47.11;99970.31;2069277;28;20442;-67
2022/07/26 03:28:35;;;;;;;;;;;;;;;26.74;46.82;99973.06;2068749;28;19917;-67
2022/07/26 03:29:36;;;;;;;;;;;;;;;26.75;46.84;99971.16;2068408;28;19924;-67
2022/07/26 03:30:36;;;;;;;;;;;;;;;26.74;46.99;99970.31;2063529;28;19957;-67
2022/07/26 03:31:36;;;;;;;;;;;;;;;26.73;47.16;99974.16;2071753;28;19920;-67
2022/07/26 03:32:37;;;;;;;;;;;;;;;26.73;46.75;99974.16;2068758;28;19952;-67
2022/07/26 03:33:40;;;;;;;;;;;;;;;26.72;46.80;99978.78;2070823;28;19924;-67
2022/07/26 03:34:41;;;;;;;;;;;;;;;26.72;47.15;99966.88;2072322;28;20437;-67
2022/07/26 03:35:41;;;;;;;;;;;;;;;26.73;47.12;99976.91;2066536;28;20358;-67
2022/07/26 03:36:42;;;;;;;;;;;;;;;26.72;46.84;99973.28;2067716;28;20483;-67
2022/07/26 03:37:43;;;;;;;;;;;;;;;26.72;47.01;99972.41;2065083;28;20579;-67
2022/07/26 03:38:43;;;;;;;;;;;;;;;26.72;47.04;99969.66;2063307;28;20291;-68
2022/07/26 03:39:43;;;;;;;;;;;;;;;26.73;47.13;99974.16;2064127;28;19959;-67
2022/07/26 03:40:44;;;;;;;;;;;;;;;26.72;46.79;99973.28;2066924;28;19917;-67
2022/07/26 03:41:44;;;;;;;;;;;;;;;26.72;46.96;99973.28;2066462;28;19924;-67
2022/07/26 03:42:45;;;;;;;;;;;;;;;26.72;46.71;99966.88;2066810;28;19924;-67
2022/07/26 03:43:45;;;;;;;;;;;;;;;26.73;46.85;99971.38;2068995;28;19913;-67
2022/07/26 03:44:45;;;;;;;;;;;;;;;26.73;46.82;99969.47;2064302;28;20326;-67
2022/07/26 03:45:46;;;;;;;;;;;;;;;26.73;46.91;99968.63;2072147;28;20410;-67
2022/07/26 03:46:46;;;;;;;;;;;;;;;26.73;46.85;99975.00;2064629;28;19913;-67
2022/07/26 03:47:46;;;;;;;;;;;;;;;26.73;46.80;99980.53;2070288;28;19990;-67
2022/07/26 03:48:47;;;;;;;;;;;;;;;26.73;46.86;99975.00;2069588;28;19917;-67
2022/07/26 03:49:47;;;;;;;;;;;;;;;26.73;46.75;99974.16;2068368;28;19996;-67
2022/07/26 03:50:48;;;;;;;;;;;;;;;26.74;46.86;99973.06;2074021;28;19909;-67
2022/07/26 03:51:48;;;;;;;;;;;;;;;26.73;46.99;99974.16;2070224;28;20712;-67
2022/07/26 03:52:48;;;;;;;;;;;;;;;26.73;46.76;99963.09;2067519;28;20011;-67
2022/07/26 03:53:48;;;;;;;;;;;;;;;26.73;46.88;99971.38;2070601;28;19905;-67
2022/07/26 03:54:49;;;;;;;;;;;;;;;26.74;46.71;99973.06;2072476;28;19917;-67
2022/07/26 03:57:08;;;;;;;;;;;;;;;26.72;46.94;99969.66;2069605;28;19917;-67
2022/07/26 03:58:08;;;;;;;;;;;;;;;26.72;47.04;99966.88;2070487;28;19909;-67
2022/07/26 03:59:09;;;;;;;;;;;;;;;26.73;46.91;99965.84;2066488;28;19921;-67
2022/07/26 04:00:10;;;;;;;;;;;;;;;26.73;47.04;99963.09;2068135;28;20467;-67
2022/07/26 04:01:10;;;;;;;;;;;;;;;26.72;47.00;99966.88;2067916;28;20324;-67
2022/07/26 04:02:11;;;;;;;;;;;;;;;26.73;47.00;99963.09;2061695;28;20016;-67
2022/07/26 04:03:11;;;;;;;;;;;;;;;26.71;46.92;99960.50;2065234;28;19963;-67
2022/07/26 04:04:13;;;;;;;;;;;;;;;26.71;46.76;99960.50;2061777;28;20270;-67
2022/07/26 04:05:13;;;;;;;;;;;;;;;26.72;46.63;99964.13;2067083;28;20012;-67
2022/07/26 04:06:13;;;;;;;;;;;;;;;26.71;46.97;99971.56;2065933;28;19913;-67
2022/07/26 04:07:14;;;;;;;;;;;;;;;26.71;46.80;99970.72;2068449;28;19913;-67
2022/07/26 04:08:14;;;;;;;;;;;;;;;26.71;46.83;99959.66;2070821;28;19916;-67
2022/07/26 04:09:15;;;;;;;;;;;;;;;26.69;47.17;99961.78;2066277;28;19917;-67
2022/07/26 04:10:15;;;;;;;;;;;;;;;26.69;47.15;99962.63;2069177;28;19917;-67
2022/07/26 04:11:15;;;;;;;;;;;;;;;26.69;47.08;99962.63;2071206;28;20027;-67
2022/07/26 04:12:16;;;;;;;;;;;;;;;26.69;46.88;99970.06;2069154;28;20364;-67
2022/07/26 04:13:16;;;;;;;;;;;;;;;26.68;46.82;99971.13;2070540;28;19913;-67
2022/07/26 04:14:17;;;;;;;;;;;;;;;26.68;46.97;99965.59;2069103;28;19917;-67
2022/07/26 04:15:19;;;;;;;;;;;;;;;26.68;47.17;99971.13;2075129;28;19954;-67
2022/07/26 04:16:20;;;;;;;;;;;;;;;26.67;47.12;99974.94;2070778;28;19917;-67
2022/07/26 04:17:20;;;;;;;;;;;;;;;26.67;47.01;99966.66;2072384;28;19905;-67
2022/07/26 04:18:20;;;;;;;;;;;;;;;26.68;47.18;99971.13;2069693;28;19943;-67
2022/07/26 04:19:21;;;;;;;;;;;;;;;26.67;47.08;99964.72;2067834;28;20387;-67
2022/07/26 04:20:21;;;;;;;;;;;;;;;26.66;47.17;99967.72;2071766;28;19909;-67
2022/07/26 04:21:22;;;;;;;;;;;;;;;26.66;46.90;99974.09;2068869;28;20348;-67
2022/07/26 04:22:22;;;;;;;;;;;;;;;26.67;46.86;99970.25;2068994;28;19915;-68
2022/07/26 04:23:23;;;;;;;;;;;;;;;26.68;47.07;99971.13;2066639;28;20705;-67
2022/07/26 04:24:23;;;;;;;;;;;;;;;26.68;47.03;99976.66;2068760;28;20634;-68
2022/07/26 04:25:23;;;;;;;;;;;;;;;26.68;47.13;99971.13;2062417;28;19921;-67
2022/07/26 04:26:24;;;;;;;;;;;;;;;26.67;47.05;99978.56;2067521;28;19940;-67
2022/07/26 04:27:24;;;;;;;;;;;;;;;26.68;46.83;99973.91;2064552;28;19925;-67
2022/07/26 04:28:27;;;;;;;;;;;;;;;26.69;46.86;99967.31;2065434;28;19943;-67
2022/07/26 04:29:27;;;;;;;;;;;;;;;26.68;46.82;99980.28;2066731;28;19998;-67
2022/07/26 04:30:28;;;;;;;;;;;;;;;26.68;46.80;99972.00;2071237;28;19913;-67
2022/07/26 04:31:28;;;;;;;;;;;;;;;26.68;46.85;99972.00;2069987;28;20596;-67
2022/07/26 04:32:28;;;;;;;;;;;;;;;26.68;46.71;99976.66;2070648;28;19920;-67
2022/07/26 04:33:29;;;;;;;;;;;;;;;26.69;46.75;99975.59;2071243;28;19924;-67
2022/07/26 04:34:29;;;;;;;;;;;;;;;26.69;46.77;99972.84;2069881;28;19982;-67
2022/07/26 04:35:29;;;;;;;;;;;;;;;26.69;46.65;99978.38;2070517;28;19956;-67
2022/07/26 04:36:30;;;;;;;;;;;;;;;26.69;46.99;99978.38;2069047;28;19920;-67
2022/07/26 04:37:33;;;;;;;;;;;;;;;26.68;46.80;99976.66;2069883;28;19917;-67
2022/07/26 04:38:33;;;;;;;;;;;;;;;26.68;46.68;99983.03;2071460;28;19917;-67
2022/07/26 04:39:34;;;;;;;;;;;;;;;26.68;46.92;99983.03;2063923;28;19918;-67
2022/07/26 04:40:34;;;;;;;;;;;;;;;26.69;46.78;99978.38;2067113;28;19920;-67
2022/07/26 04:41:34;;;;;;;;;;;;;;;26.68;46.78;99972.00;2070594;28;20451;-67
2022/07/26 04:42:35;;;;;;;;;;;;;;;26.68;46.96;99976.66;2069380;28;19924;-67
2022/07/26 04:43:35;;;;;;;;;;;;;;;26.68;47.02;99976.66;2069172;28;19917;-67
2022/07/26 04:44:36;;;;;;;;;;;;;;;26.68;47.05;99971.13;2064870;28;20363;-67
2022/07/26 04:45:36;;;;;;;;;;;;;;;26.68;46.81;99973.91;2063787;28;20359;-67
2022/07/26 04:46:36;;;;;;;;;;;;;;;26.68;47.02;99971.13;2070976;28;19913;-67
2022/07/26 04:47:40;;;;;;;;;;;;;;;26.67;46.78;99973.03;2070429;28;19914;-67
2022/07/26 04:48:40;;;;;;;;;;;;;;;26.67;46.88;99973.03;2067133;28;20414;-67
2022/07/26 04:49:40;;;;;;;;;;;;;;;26.66;46.81;99973.25;2069643;28;20327;-67
2022/07/26 04:50:41;;;;;;;;;;;;;;;26.65;46.77;99971.53;2068255;28;19920;-67
2022/07/26 04:51:41;;;;;;;;;;;;;;;26.67;47.02;99972.19;2066910;28;19917;-67
2022/07/26 04:52:42;;;;;;;;;;;;;;;26.65;46.79;99968.75;2069863;28;19920;-67
2022/07/26 04:53:42;;;;;;;;;;;;;;;26.65;46.99;99964.06;2068651;28;19995;-67
2022/07/26 04:54:42;;;;;;;;;;;;;;;26.65;46.69;99968.75;2064310;28;20503;-67
2022/07/26 04:55:42;;;;;;;;;;;;;;;26.65;47.00;99966.00;2068594;28;20411;-67
2022/07/26 04:56:43;;;;;;;;;;;;;;;26.64;46.75;99965.16;2065999;28;20712;-67
2022/07/26 04:57:44;;;;;;;;;;;;;;;26.64;46.81;99967.91;2070413;28;20387;-67
2022/07/26 04:58:44;;;;;;;;;;;;;;;26.64;46.86;99969.81;2068552;28;19921;-67
2022/07/26 04:59:44;;;;;;;;;;;;;;;26.64;46.82;99965.16;2069239;28;19935;-68
2022/07/26 05:00:45;;;;;;;;;;;;;;;26.64;46.95;99969.81;2063441;28;19914;-67
2022/07/26 05:01:45;;;;;;;;;;;;;;;26.63;46.90;99968.97;2064685;28;19921;-67
2022/07/26 05:02:45;;;;;;;;;;;;;;;26.64;47.05;99969.81;2070656;28;19996;-67
2022/07/26 05:03:45;;;;;;;;;;;;;;;26.64;47.04;99969.81;2068510;28;19979;-67
2022/07/26 05:04:46;;;;;;;;;;;;;;;26.63;46.81;99980.03;2069158;28;19913;-67
2022/07/26 05:05:46;;;;;;;;;;;;;;;26.63;47.00;99973.63;2070208;28;20285;-67
2022/07/26 05:06:46;;;;;;;;;;;;;;;26.63;46.76;99974.50;2067991;28;20403;-67
2022/07/26 05:07:50;;;;;;;;;;;;;;;26.64;47.03;99975.34;2066537;28;19909;-67
2022/07/26 05:08:50;;;;;;;;;;;;;;;26.64;46.71;99975.34;2069525;28;19921;-67
2022/07/26 05:09:50;;;;;;;;;;;;;;;26.63;46.88;99980.03;2069604;28;19917;-67
2022/07/26 05:10:51;;;;;;;;;;;;;;;26.64;46.76;99975.34;2063232;28;19917;-67
2022/07/26 05:11:51;;;;;;;;;;;;;;;26.64;46.74;99975.34;2070164;28;19906;-67
2022/07/26 05:12:52;;;;;;;;;;;;;;;26.64;46.99;99975.34;2071377;28;20391;-67
2022/07/26 05:13:52;;;;;;;;;;;;;;;26.65;46.72;99977.06;2071037;28;19944;-67
2022/07/26 05:14:52;;;;;;;;;;;;;;;26.64;46.99;99976.22;2071994;28;19913;-67